sensor_id;sensor_type;location;lat;lon;timestamp;P1;durP1;ratioP1;P2;durP2;ratioP2
64339;SDS011;50674;53.290;-9.080;2022-07-11T00:01:19;3.95;;;2.35;;
64339;SDS011;50674;53.290;-9.080;2022-07-11T00:03:52;3.88;;;2.13;;
64339;SDS011;50674;53.290;-9.080;2022-07-11T00:06:20;4.57;;;2.10;;
64339;SDS011;50674;53.290;-9.080;2022-07-11T00:08:47;5.15;;;2.80;;
64339;SDS011;50674;53.290;-9.080;2022-07-11T00:11:22;5.72;;;2.50;;
64339;SDS011;50674;53.290;-9.080;2022-07-11T00:13:49;8.20;;;2.20;;
64339;SDS011;50674;53.290;-9.080;2022-07-11T00:16:21;4.72;;;2.08;;
64339;SDS011;50674;53.290;-9.080;2022-07-11T00:18:47;5.40;;;2.67;;
64339;SDS011;50674;53.290;-9.080;2022-07-11T00:21:21;4.75;;;2.60;;
64339;SDS011;50674;53.290;-9.080;2022-07-11T00:23:49;5.53;;;2.63;;
64339;SDS011;50674;53.290;-9.080;2022-07-11T00:26:14;5.45;;;2.67;;
64339;SDS011;50674;53.290;-9.080;2022-07-11T00:28:41;5.75;;;2.80;;
64339;SDS011;50674;53.290;-9.080;2022-07-11T00:31:09;3.97;;;2.47;;
64339;SDS011;50674;53.290;-9.080;2022-07-11T00:36:06;8.65;;;2.60;;
64339;SDS011;50674;53.290;-9.080;2022-07-11T00:41:02;4.40;;;2.40;;
64339;SDS011;50674;53.290;-9.080;2022-07-11T00:46:19;7.30;;;2.88;;
64339;SDS011;50674;53.290;-9.080;2022-07-11T00:48:48;5.63;;;2.60;;
64339;SDS011;50674;53.290;-9.080;2022-07-11T00:51:15;6.60;;;3.10;;
64339;SDS011;50674;53.290;-9.080;2022-07-11T00:58:55;5.68;;;2.47;;
64339;SDS011;50674;53.290;-9.080;2022-07-11T01:01:22;5.60;;;2.47;;
64339;SDS011;50674;53.290;-9.080;2022-07-11T01:03:48;5.07;;;2.90;;
64339;SDS011;50674;53.290;-9.080;2022-07-11T01:06:15;5.20;;;2.88;;
64339;SDS011;50674;53.290;-9.080;2022-07-11T01:08:57;11.23;;;3.10;;
64339;SDS011;50674;53.290;-9.080;2022-07-11T01:14:54;3.75;;;2.75;;
64339;SDS011;50674;53.290;-9.080;2022-07-11T01:26:28;7.10;;;3.28;;
64339;SDS011;50674;53.290;-9.080;2022-07-11T01:32:20;5.75;;;2.83;;
64339;SDS011;50674;53.290;-9.080;2022-07-11T01:44:41;5.32;;;3.25;;
64339;SDS011;50674;53.290;-9.080;2022-07-11T01:47:21;9.65;;;3.50;;
64339;SDS011;50674;53.290;-9.080;2022-07-11T01:53:08;5.55;;;3.90;;
64339;SDS011;50674;53.290;-9.080;2022-07-11T02:02:17;5.88;;;3.00;;
64339;SDS011;50674;53.290;-9.080;2022-07-11T02:08:07;6.65;;;3.20;;
64339;SDS011;50674;53.290;-9.080;2022-07-11T02:10:49;8.45;;;3.53;;
64339;SDS011;50674;53.290;-9.080;2022-07-11T02:19:47;7.22;;;4.00;;
64339;SDS011;50674;53.290;-9.080;2022-07-11T02:25:35;6.97;;;3.90;;
64339;SDS011;50674;53.290;-9.080;2022-07-11T02:31:25;8.52;;;4.30;;
64339;SDS011;50674;53.290;-9.080;2022-07-11T02:37:12;8.48;;;4.30;;
64339;SDS011;50674;53.290;-9.080;2022-07-11T02:43:24;6.88;;;3.90;;
64339;SDS011;50674;53.290;-9.080;2022-07-11T02:49:12;8.20;;;4.38;;
64339;SDS011;50674;53.290;-9.080;2022-07-11T02:54:59;10.38;;;4.55;;
64339;SDS011;50674;53.290;-9.080;2022-07-11T03:03:21;8.80;;;4.78;;
64339;SDS011;50674;53.290;-9.080;2022-07-11T03:09:08;14.60;;;7.63;;
64339;SDS011;50674;53.290;-9.080;2022-07-11T03:14:56;6.80;;;4.68;;
64339;SDS011;50674;53.290;-9.080;2022-07-11T03:20:44;10.02;;;4.38;;
64339;SDS011;50674;53.290;-9.080;2022-07-11T03:26:31;11.98;;;4.15;;
64339;SDS011;50674;53.290;-9.080;2022-07-11T03:32:18;13.02;;;4.15;;
64339;SDS011;50674;53.290;-9.080;2022-07-11T03:38:09;7.57;;;3.85;;
64339;SDS011;50674;53.290;-9.080;2022-07-11T03:43:57;8.27;;;4.38;;
64339;SDS011;50674;53.290;-9.080;2022-07-11T03:49:45;5.55;;;3.55;;
64339;SDS011;50674;53.290;-9.080;2022-07-11T03:55:34;5.90;;;3.53;;
64339;SDS011;50674;53.290;-9.080;2022-07-11T04:04:21;7.90;;;4.30;;
64339;SDS011;50674;53.290;-9.080;2022-07-11T04:10:08;7.55;;;4.10;;
64339;SDS011;50674;53.290;-9.080;2022-07-11T04:19:17;8.65;;;4.13;;
64339;SDS011;50674;53.290;-9.080;2022-07-11T04:25:04;8.38;;;4.45;;
64339;SDS011;50674;53.290;-9.080;2022-07-11T04:30:52;6.78;;;3.95;;
64339;SDS011;50674;53.290;-9.080;2022-07-11T04:36:39;11.20;;;4.93;;
64339;SDS011;50674;53.290;-9.080;2022-07-11T04:42:26;8.82;;;4.57;;
64339;SDS011;50674;53.290;-9.080;2022-07-11T04:48:14;8.15;;;5.03;;
64339;SDS011;50674;53.290;-9.080;2022-07-11T04:56:40;9.98;;;4.20;;
64339;SDS011;50674;53.290;-9.080;2022-07-11T05:02:28;8.02;;;3.85;;
64339;SDS011;50674;53.290;-9.080;2022-07-11T05:08:15;10.45;;;3.72;;
64339;SDS011;50674;53.290;-9.080;2022-07-11T05:14:02;5.65;;;2.97;;
64339;SDS011;50674;53.290;-9.080;2022-07-11T05:19:49;5.35;;;3.45;;
64339;SDS011;50674;53.290;-9.080;2022-07-11T05:25:37;5.00;;;3.30;;
64339;SDS011;50674;53.290;-9.080;2022-07-11T05:31:24;7.57;;;3.80;;
64339;SDS011;50674;53.290;-9.080;2022-07-11T05:33:52;8.32;;;4.10;;
64339;SDS011;50674;53.290;-9.080;2022-07-11T05:39:39;5.88;;;4.20;;
64339;SDS011;50674;53.290;-9.080;2022-07-11T05:45:26;8.80;;;4.32;;
64339;SDS011;50674;53.290;-9.080;2022-07-11T05:51:13;7.93;;;4.50;;
64339;SDS011;50674;53.290;-9.080;2022-07-11T06:03:46;7.32;;;4.07;;
64339;SDS011;50674;53.290;-9.080;2022-07-11T06:09:34;9.65;;;4.15;;
64339;SDS011;50674;53.290;-9.080;2022-07-11T06:15:21;5.55;;;3.50;;
64339;SDS011;50674;53.290;-9.080;2022-07-11T06:21:08;5.28;;;3.25;;
64339;SDS011;50674;53.290;-9.080;2022-07-11T06:29:56;4.55;;;2.65;;
64339;SDS011;50674;53.290;-9.080;2022-07-11T06:35:44;8.20;;;3.65;;
64339;SDS011;50674;53.290;-9.080;2022-07-11T06:41:31;6.05;;;3.25;;
64339;SDS011;50674;53.290;-9.080;2022-07-11T06:47:19;8.45;;;3.75;;
64339;SDS011;50674;53.290;-9.080;2022-07-11T06:59:34;6.32;;;3.72;;
64339;SDS011;50674;53.290;-9.080;2022-07-11T07:05:21;5.75;;;3.78;;
64339;SDS011;50674;53.290;-9.080;2022-07-11T07:14:39;8.18;;;3.30;;
64339;SDS011;50674;53.290;-9.080;2022-07-11T07:20:26;5.15;;;3.17;;
64339;SDS011;50674;53.290;-9.080;2022-07-11T07:32:39;6.03;;;3.70;;
64339;SDS011;50674;53.290;-9.080;2022-07-11T07:38:26;7.35;;;3.30;;
64339;SDS011;50674;53.290;-9.080;2022-07-11T07:44:13;8.00;;;3.25;;
64339;SDS011;50674;53.290;-9.080;2022-07-11T07:53:19;4.85;;;3.10;;
64339;SDS011;50674;53.290;-9.080;2022-07-11T07:59:06;6.63;;;2.95;;
64339;SDS011;50674;53.290;-9.080;2022-07-11T08:04:53;7.18;;;2.72;;
64339;SDS011;50674;53.290;-9.080;2022-07-11T08:10:41;4.38;;;2.75;;
64339;SDS011;50674;53.290;-9.080;2022-07-11T08:16:29;4.68;;;2.33;;
64339;SDS011;50674;53.290;-9.080;2022-07-11T08:24:59;5.63;;;2.58;;
64339;SDS011;50674;53.290;-9.080;2022-07-11T08:30:46;3.75;;;2.20;;
64339;SDS011;50674;53.290;-9.080;2022-07-11T08:36:33;4.00;;;2.17;;
64339;SDS011;50674;53.290;-9.080;2022-07-11T08:45:00;2.60;;;2.00;;
64339;SDS011;50674;53.290;-9.080;2022-07-11T08:50:49;3.45;;;2.00;;
64339;SDS011;50674;53.290;-9.080;2022-07-11T08:56:36;6.32;;;2.20;;
64339;SDS011;50674;53.290;-9.080;2022-07-11T09:02:24;5.82;;;3.42;;
64339;SDS011;50674;53.290;-9.080;2022-07-11T09:07:52;3.08;;;2.15;;
64339;SDS011;50674;53.290;-9.080;2022-07-11T09:17:38;4.78;;;2.50;;
64339;SDS011;50674;53.290;-9.080;2022-07-11T09:23:26;3.55;;;2.30;;
64339;SDS011;50674;53.290;-9.080;2022-07-11T09:29:31;6.93;;;2.80;;
64339;SDS011;50674;53.290;-9.080;2022-07-11T09:35:18;5.70;;;2.60;;
64339;SDS011;50674;53.290;-9.080;2022-07-11T09:41:10;5.10;;;2.20;;
64339;SDS011;50674;53.290;-9.080;2022-07-11T09:46:57;3.92;;;2.28;;
64339;SDS011;50674;53.290;-9.080;2022-07-11T09:58:58;3.22;;;2.15;;
64339;SDS011;50674;53.290;-9.080;2022-07-11T10:04:49;2.47;;;2.03;;
64339;SDS011;50674;53.290;-9.080;2022-07-11T10:10:18;3.33;;;2.38;;
64339;SDS011;50674;53.290;-9.080;2022-07-11T10:15:58;5.30;;;2.08;;
64339;SDS011;50674;53.290;-9.080;2022-07-11T10:34:04;4.13;;;2.22;;
64339;SDS011;50674;53.290;-9.080;2022-07-11T10:39:59;5.63;;;2.35;;
64339;SDS011;50674;53.290;-9.080;2022-07-11T10:45:53;4.63;;;2.55;;
64339;SDS011;50674;53.290;-9.080;2022-07-11T10:51:57;4.47;;;2.60;;
64339;SDS011;50674;53.290;-9.080;2022-07-11T10:58:35;3.88;;;2.35;;
64339;SDS011;50674;53.290;-9.080;2022-07-11T11:07:50;3.10;;;2.10;;
64339;SDS011;50674;53.290;-9.080;2022-07-11T11:13:37;3.30;;;2.20;;
64339;SDS011;50674;53.290;-9.080;2022-07-11T11:29:21;4.50;;;2.03;;
64339;SDS011;50674;53.290;-9.080;2022-07-11T11:35:10;4.05;;;1.80;;
64339;SDS011;50674;53.290;-9.080;2022-07-11T11:40:48;3.83;;;2.22;;
64339;SDS011;50674;53.290;-9.080;2022-07-11T11:46:36;6.07;;;1.80;;
64339;SDS011;50674;53.290;-9.080;2022-07-11T11:52:04;2.80;;;1.90;;
64339;SDS011;50674;53.290;-9.080;2022-07-11T11:57:53;2.88;;;1.90;;
64339;SDS011;50674;53.290;-9.080;2022-07-11T12:03:21;7.03;;;2.10;;
64339;SDS011;50674;53.290;-9.080;2022-07-11T12:08:50;4.57;;;1.83;;
64339;SDS011;50674;53.290;-9.080;2022-07-11T12:14:18;3.65;;;2.13;;
64339;SDS011;50674;53.290;-9.080;2022-07-11T12:30:27;5.32;;;1.95;;
64339;SDS011;50674;53.290;-9.080;2022-07-11T12:36:14;5.00;;;2.17;;
64339;SDS011;50674;53.290;-9.080;2022-07-11T12:42:02;2.97;;;2.05;;
64339;SDS011;50674;53.290;-9.080;2022-07-11T12:51:36;3.90;;;2.20;;
64339;SDS011;50674;53.290;-9.080;2022-07-11T13:03:45;4.18;;;1.73;;
64339;SDS011;50674;53.290;-9.080;2022-07-11T13:09:13;5.72;;;2.25;;
64339;SDS011;50674;53.290;-9.080;2022-07-11T13:15:04;2.97;;;2.10;;
64339;SDS011;50674;53.290;-9.080;2022-07-11T13:20:57;4.95;;;2.00;;
64339;SDS011;50674;53.290;-9.080;2022-07-11T13:29:38;3.25;;;2.22;;
64339;SDS011;50674;53.290;-9.080;2022-07-11T13:38:46;3.65;;;2.40;;
64339;SDS011;50674;53.290;-9.080;2022-07-11T13:44:33;4.35;;;2.28;;
64339;SDS011;50674;53.290;-9.080;2022-07-11T13:50:22;4.25;;;2.15;;
64339;SDS011;50674;53.290;-9.080;2022-07-11T13:59:26;3.42;;;2.38;;
64339;SDS011;50674;53.290;-9.080;2022-07-11T14:05:14;5.45;;;2.38;;
64339;SDS011;50674;53.290;-9.080;2022-07-11T14:11:01;5.13;;;2.10;;
64339;SDS011;50674;53.290;-9.080;2022-07-11T14:19:39;5.00;;;2.30;;
64339;SDS011;50674;53.290;-9.080;2022-07-11T14:29:14;5.18;;;2.40;;
64339;SDS011;50674;53.290;-9.080;2022-07-11T14:35:02;3.20;;;2.10;;
64339;SDS011;50674;53.290;-9.080;2022-07-11T14:40:49;5.00;;;2.30;;
64339;SDS011;50674;53.290;-9.080;2022-07-11T14:46:37;4.93;;;2.55;;
64339;SDS011;50674;53.290;-9.080;2022-07-11T14:49:09;3.58;;;2.30;;
64339;SDS011;50674;53.290;-9.080;2022-07-11T14:54:57;3.92;;;2.33;;
64339;SDS011;50674;53.290;-9.080;2022-07-11T15:00:45;2.38;;;1.85;;
64339;SDS011;50674;53.290;-9.080;2022-07-11T15:06:33;2.95;;;2.08;;
64339;SDS011;50674;53.290;-9.080;2022-07-11T15:12:38;4.30;;;1.80;;
64339;SDS011;50674;53.290;-9.080;2022-07-11T15:18:28;4.95;;;1.98;;
64339;SDS011;50674;53.290;-9.080;2022-07-11T15:24:15;2.97;;;1.75;;
64339;SDS011;50674;53.290;-9.080;2022-07-11T15:29:44;5.28;;;2.50;;
64339;SDS011;50674;53.290;-9.080;2022-07-11T15:35:12;3.28;;;2.42;;
64339;SDS011;50674;53.290;-9.080;2022-07-11T15:40:42;4.65;;;2.38;;
64339;SDS011;50674;53.290;-9.080;2022-07-11T15:46:35;5.13;;;2.10;;
64339;SDS011;50674;53.290;-9.080;2022-07-11T15:52:23;5.07;;;2.15;;
64339;SDS011;50674;53.290;-9.080;2022-07-11T15:57:51;4.32;;;2.00;;
64339;SDS011;50674;53.290;-9.080;2022-07-11T16:03:20;5.75;;;1.92;;
64339;SDS011;50674;53.290;-9.080;2022-07-11T16:08:48;2.58;;;1.83;;
64339;SDS011;50674;53.290;-9.080;2022-07-11T16:14:16;6.10;;;2.00;;
64339;SDS011;50674;53.290;-9.080;2022-07-11T16:19:45;5.82;;;2.10;;
64339;SDS011;50674;53.290;-9.080;2022-07-11T16:25:32;4.20;;;2.00;;
64339;SDS011;50674;53.290;-9.080;2022-07-11T16:31:01;6.45;;;1.83;;
64339;SDS011;50674;53.290;-9.080;2022-07-11T16:36:30;3.20;;;1.77;;
64339;SDS011;50674;53.290;-9.080;2022-07-11T16:41:59;3.05;;;1.90;;
64339;SDS011;50674;53.290;-9.080;2022-07-11T16:48:05;3.75;;;1.85;;
64339;SDS011;50674;53.290;-9.080;2022-07-11T16:53:33;4.20;;;2.28;;
64339;SDS011;50674;53.290;-9.080;2022-07-11T16:59:20;4.57;;;2.03;;
64339;SDS011;50674;53.290;-9.080;2022-07-11T17:04:49;2.83;;;1.88;;
64339;SDS011;50674;53.290;-9.080;2022-07-11T17:10:37;4.18;;;2.70;;
64339;SDS011;50674;53.290;-9.080;2022-07-11T17:16:06;4.30;;;2.33;;
64339;SDS011;50674;53.290;-9.080;2022-07-11T17:21:54;3.53;;;2.05;;
64339;SDS011;50674;53.290;-9.080;2022-07-11T17:27:29;3.38;;;1.90;;
64339;SDS011;50674;53.290;-9.080;2022-07-11T17:32:58;4.55;;;1.95;;
64339;SDS011;50674;53.290;-9.080;2022-07-11T17:38:26;5.18;;;2.10;;
64339;SDS011;50674;53.290;-9.080;2022-07-11T17:43:55;5.05;;;2.28;;
64339;SDS011;50674;53.290;-9.080;2022-07-11T17:49:23;4.30;;;2.08;;
64339;SDS011;50674;53.290;-9.080;2022-07-11T17:54:52;7.45;;;2.72;;
64339;SDS011;50674;53.290;-9.080;2022-07-11T18:00:20;3.35;;;2.30;;
64339;SDS011;50674;53.290;-9.080;2022-07-11T18:06:09;3.50;;;2.00;;
64339;SDS011;50674;53.290;-9.080;2022-07-11T18:11:57;4.10;;;2.33;;
64339;SDS011;50674;53.290;-9.080;2022-07-11T18:17:25;5.10;;;2.30;;
64339;SDS011;50674;53.290;-9.080;2022-07-11T18:23:13;6.35;;;2.22;;
64339;SDS011;50674;53.290;-9.080;2022-07-11T18:28:42;5.03;;;2.58;;
64339;SDS011;50674;53.290;-9.080;2022-07-11T18:34:31;5.30;;;2.55;;
64339;SDS011;50674;53.290;-9.080;2022-07-11T18:47:01;6.20;;;2.30;;
64339;SDS011;50674;53.290;-9.080;2022-07-11T18:52:49;3.83;;;2.40;;
64339;SDS011;50674;53.290;-9.080;2022-07-11T18:58:18;7.68;;;2.50;;
64339;SDS011;50674;53.290;-9.080;2022-07-11T19:03:46;4.82;;;2.67;;
64339;SDS011;50674;53.290;-9.080;2022-07-11T19:09:14;6.15;;;2.38;;
64339;SDS011;50674;53.290;-9.080;2022-07-11T19:15:02;5.32;;;2.50;;
64339;SDS011;50674;53.290;-9.080;2022-07-11T19:20:31;6.63;;;3.00;;
64339;SDS011;50674;53.290;-9.080;2022-07-11T19:25:59;5.38;;;2.50;;
64339;SDS011;50674;53.290;-9.080;2022-07-11T19:31:34;5.00;;;2.47;;
64339;SDS011;50674;53.290;-9.080;2022-07-11T19:37:03;5.10;;;2.55;;
64339;SDS011;50674;53.290;-9.080;2022-07-11T19:42:31;6.82;;;2.33;;
64339;SDS011;50674;53.290;-9.080;2022-07-11T19:47:59;4.80;;;2.60;;
64339;SDS011;50674;53.290;-9.080;2022-07-11T19:53:28;3.80;;;2.28;;
64339;SDS011;50674;53.290;-9.080;2022-07-11T19:58:56;6.00;;;2.45;;
64339;SDS011;50674;53.290;-9.080;2022-07-11T20:04:24;8.35;;;2.70;;
64339;SDS011;50674;53.290;-9.080;2022-07-11T20:09:52;3.63;;;2.40;;
64339;SDS011;50674;53.290;-9.080;2022-07-11T20:15:48;6.13;;;2.40;;
64339;SDS011;50674;53.290;-9.080;2022-07-11T20:21:35;3.78;;;2.40;;
64339;SDS011;50674;53.290;-9.080;2022-07-11T20:27:04;9.55;;;2.75;;
64339;SDS011;50674;53.290;-9.080;2022-07-11T20:32:33;4.22;;;2.65;;
64339;SDS011;50674;53.290;-9.080;2022-07-11T20:38:21;4.30;;;2.47;;
64339;SDS011;50674;53.290;-9.080;2022-07-11T20:43:49;5.53;;;2.45;;
64339;SDS011;50674;53.290;-9.080;2022-07-11T20:49:18;4.28;;;2.72;;
64339;SDS011;50674;53.290;-9.080;2022-07-11T20:54:46;4.30;;;2.63;;
64339;SDS011;50674;53.290;-9.080;2022-07-11T21:00:14;4.53;;;3.22;;
64339;SDS011;50674;53.290;-9.080;2022-07-11T21:05:43;7.10;;;2.97;;
64339;SDS011;50674;53.290;-9.080;2022-07-11T21:11:30;6.90;;;3.88;;
64339;SDS011;50674;53.290;-9.080;2022-07-11T21:16:58;6.72;;;3.35;;
64339;SDS011;50674;53.290;-9.080;2022-07-11T21:22:27;6.40;;;3.53;;
64339;SDS011;50674;53.290;-9.080;2022-07-11T21:27:55;8.95;;;3.60;;
64339;SDS011;50674;53.290;-9.080;2022-07-11T21:33:42;8.73;;;3.30;;
64339;SDS011;50674;53.290;-9.080;2022-07-11T21:39:30;6.43;;;3.25;;
64339;SDS011;50674;53.290;-9.080;2022-07-11T21:44:57;6.35;;;3.40;;
64339;SDS011;50674;53.290;-9.080;2022-07-11T21:50:26;4.38;;;2.80;;
64339;SDS011;50674;53.290;-9.080;2022-07-11T21:56:14;8.15;;;3.28;;
64339;SDS011;50674;53.290;-9.080;2022-07-11T22:01:42;4.32;;;2.85;;
64339;SDS011;50674;53.290;-9.080;2022-07-11T22:07:29;6.43;;;2.92;;
64339;SDS011;50674;53.290;-9.080;2022-07-11T22:13:17;3.45;;;2.47;;
64339;SDS011;50674;53.290;-9.080;2022-07-11T22:19:04;4.05;;;2.90;;
64339;SDS011;50674;53.290;-9.080;2022-07-11T22:24:51;5.75;;;2.55;;
64339;SDS011;50674;53.290;-9.080;2022-07-11T22:30:38;8.15;;;3.15;;
64339;SDS011;50674;53.290;-9.080;2022-07-11T22:40:23;7.57;;;2.97;;
64339;SDS011;50674;53.290;-9.080;2022-07-11T22:46:11;6.35;;;3.30;;
64339;SDS011;50674;53.290;-9.080;2022-07-11T22:51:58;4.72;;;3.05;;
64339;SDS011;50674;53.290;-9.080;2022-07-11T22:57:45;5.55;;;3.00;;
64339;SDS011;50674;53.290;-9.080;2022-07-11T23:03:32;5.30;;;3.00;;
64339;SDS011;50674;53.290;-9.080;2022-07-11T23:09:19;5.05;;;2.80;;
64339;SDS011;50674;53.290;-9.080;2022-07-11T23:15:07;8.05;;;3.50;;
64339;SDS011;50674;53.290;-9.080;2022-07-11T23:20:54;5.95;;;3.53;;
64339;SDS011;50674;53.290;-9.080;2022-07-11T23:26:41;8.27;;;2.97;;
64339;SDS011;50674;53.290;-9.080;2022-07-11T23:32:29;7.07;;;3.42;;
64339;SDS011;50674;53.290;-9.080;2022-07-11T23:38:16;6.18;;;3.42;;
64339;SDS011;50674;53.290;-9.080;2022-07-11T23:44:03;8.65;;;4.25;;
64339;SDS011;50674;53.290;-9.080;2022-07-11T23:49:50;8.23;;;3.80;;
64339;SDS011;50674;53.290;-9.080;2022-07-11T23:55:38;7.38;;;3.72;;
